sensor_id;sensor_type;location;lat;lon;timestamp;P1;durP1;ratioP1;P2;durP2;ratioP2
62880;SDS011;48969;49.934;8.596;2023-05-10T00:01:29;0.85;;;0.70;;
62880;SDS011;48969;49.934;8.596;2023-05-10T00:03:54;2.08;;;0.70;;
62880;SDS011;48969;49.934;8.596;2023-05-10T00:06:19;1.50;;;1.10;;
62880;SDS011;48969;49.934;8.596;2023-05-10T00:08:45;1.20;;;1.00;;
62880;SDS011;48969;49.934;8.596;2023-05-10T00:11:10;1.85;;;0.88;;
62880;SDS011;48969;49.934;8.596;2023-05-10T00:13:35;1.35;;;1.17;;
62880;SDS011;48969;49.934;8.596;2023-05-10T00:16:00;0.73;;;0.70;;
62880;SDS011;48969;49.934;8.596;2023-05-10T00:18:26;1.10;;;0.90;;
62880;SDS011;48969;49.934;8.596;2023-05-10T00:20:51;1.20;;;1.10;;
62880;SDS011;48969;49.934;8.596;2023-05-10T00:23:16;1.55;;;0.90;;
62880;SDS011;48969;49.934;8.596;2023-05-10T00:25:41;3.33;;;1.10;;
62880;SDS011;48969;49.934;8.596;2023-05-10T00:28:07;3.33;;;1.02;;
62880;SDS011;48969;49.934;8.596;2023-05-10T00:30:32;1.77;;;1.20;;
62880;SDS011;48969;49.934;8.596;2023-05-10T00:32:57;0.98;;;0.98;;
62880;SDS011;48969;49.934;8.596;2023-05-10T00:35:22;1.33;;;1.10;;
62880;SDS011;48969;49.934;8.596;2023-05-10T00:37:48;1.20;;;1.02;;
62880;SDS011;48969;49.934;8.596;2023-05-10T00:40:13;1.88;;;1.13;;
62880;SDS011;48969;49.934;8.596;2023-05-10T00:42:38;1.40;;;0.98;;
62880;SDS011;48969;49.934;8.596;2023-05-10T00:45:04;1.83;;;1.08;;
62880;SDS011;48969;49.934;8.596;2023-05-10T00:47:29;1.50;;;0.80;;
62880;SDS011;48969;49.934;8.596;2023-05-10T00:49:54;0.88;;;0.70;;
62880;SDS011;48969;49.934;8.596;2023-05-10T00:52:20;1.02;;;1.00;;
62880;SDS011;48969;49.934;8.596;2023-05-10T00:54:46;1.20;;;1.10;;
62880;SDS011;48969;49.934;8.596;2023-05-10T00:57:11;1.15;;;0.93;;
62880;SDS011;48969;49.934;8.596;2023-05-10T00:59:37;0.90;;;0.90;;
62880;SDS011;48969;49.934;8.596;2023-05-10T01:02:03;1.08;;;1.00;;
62880;SDS011;48969;49.934;8.596;2023-05-10T01:04:28;1.75;;;1.08;;
62880;SDS011;48969;49.934;8.596;2023-05-10T01:06:55;1.05;;;1.00;;
62880;SDS011;48969;49.934;8.596;2023-05-10T01:09:21;1.00;;;1.00;;
62880;SDS011;48969;49.934;8.596;2023-05-10T01:11:46;1.17;;;0.90;;
62880;SDS011;48969;49.934;8.596;2023-05-10T01:14:12;2.58;;;1.20;;
62880;SDS011;48969;49.934;8.596;2023-05-10T01:16:38;1.17;;;0.93;;
62880;SDS011;48969;49.934;8.596;2023-05-10T01:19:04;1.33;;;1.10;;
62880;SDS011;48969;49.934;8.596;2023-05-10T01:21:36;2.25;;;1.30;;
62880;SDS011;48969;49.934;8.596;2023-05-10T01:31:22;1.88;;;1.15;;
62880;SDS011;48969;49.934;8.596;2023-05-10T01:33:55;1.33;;;1.00;;
62880;SDS011;48969;49.934;8.596;2023-05-10T01:36:31;1.42;;;1.20;;
62880;SDS011;48969;49.934;8.596;2023-05-10T01:38:59;1.60;;;1.25;;
62880;SDS011;48969;49.934;8.596;2023-05-10T01:44:00;2.28;;;1.00;;
62880;SDS011;48969;49.934;8.596;2023-05-10T01:46:36;0.85;;;0.70;;
62880;SDS011;48969;49.934;8.596;2023-05-10T01:49:02;0.82;;;0.82;;
62880;SDS011;48969;49.934;8.596;2023-05-10T01:51:36;1.25;;;0.98;;
62880;SDS011;48969;49.934;8.596;2023-05-10T01:54:03;2.60;;;1.08;;
62880;SDS011;48969;49.934;8.596;2023-05-10T01:56:30;1.77;;;1.10;;
62880;SDS011;48969;49.934;8.596;2023-05-10T01:58:56;1.27;;;1.15;;
62880;SDS011;48969;49.934;8.596;2023-05-10T02:01:22;1.08;;;1.05;;
62880;SDS011;48969;49.934;8.596;2023-05-10T02:03:49;2.58;;;1.20;;
62880;SDS011;48969;49.934;8.596;2023-05-10T02:06:14;2.03;;;1.25;;
62880;SDS011;48969;49.934;8.596;2023-05-10T02:08:41;1.30;;;1.20;;
62880;SDS011;48969;49.934;8.596;2023-05-10T02:11:08;1.40;;;1.30;;
62880;SDS011;48969;49.934;8.596;2023-05-10T02:13:34;3.33;;;1.35;;
62880;SDS011;48969;49.934;8.596;2023-05-10T02:16:00;1.70;;;1.60;;
62880;SDS011;48969;49.934;8.596;2023-05-10T02:18:26;2.28;;;1.30;;
62880;SDS011;48969;49.934;8.596;2023-05-10T02:20:52;1.40;;;1.30;;
62880;SDS011;48969;49.934;8.596;2023-05-10T02:23:18;1.25;;;1.13;;
62880;SDS011;48969;49.934;8.596;2023-05-10T02:25:45;1.80;;;1.33;;
62880;SDS011;48969;49.934;8.596;2023-05-10T02:28:10;1.60;;;1.50;;
62880;SDS011;48969;49.934;8.596;2023-05-10T02:30:36;1.40;;;1.30;;
62880;SDS011;48969;49.934;8.596;2023-05-10T02:33:01;2.13;;;1.30;;
62880;SDS011;48969;49.934;8.596;2023-05-10T02:35:28;1.27;;;1.17;;
62880;SDS011;48969;49.934;8.596;2023-05-10T02:37:53;1.83;;;1.38;;
62880;SDS011;48969;49.934;8.596;2023-05-10T02:40:19;1.88;;;1.08;;
62880;SDS011;48969;49.934;8.596;2023-05-10T02:42:45;1.35;;;0.95;;
62880;SDS011;48969;49.934;8.596;2023-05-10T02:45:13;2.03;;;1.48;;
62880;SDS011;48969;49.934;8.596;2023-05-10T02:47:38;1.55;;;1.30;;
62880;SDS011;48969;49.934;8.596;2023-05-10T02:50:04;2.38;;;1.88;;
62880;SDS011;48969;49.934;8.596;2023-05-10T02:52:30;1.52;;;1.42;;
62880;SDS011;48969;49.934;8.596;2023-05-10T02:55:02;2.10;;;1.88;;
62880;SDS011;48969;49.934;8.596;2023-05-10T02:57:28;2.38;;;1.75;;
62880;SDS011;48969;49.934;8.596;2023-05-10T02:59:56;1.95;;;1.85;;
62880;SDS011;48969;49.934;8.596;2023-05-10T03:02:22;4.45;;;4.05;;
62880;SDS011;48969;49.934;8.596;2023-05-10T03:04:47;1.70;;;1.60;;
62880;SDS011;48969;49.934;8.596;2023-05-10T03:07:12;2.17;;;2.00;;
62880;SDS011;48969;49.934;8.596;2023-05-10T03:09:38;2.30;;;1.70;;
62880;SDS011;48969;49.934;8.596;2023-05-10T03:12:18;2.40;;;1.98;;
62880;SDS011;48969;49.934;8.596;2023-05-10T03:14:53;3.72;;;2.25;;
62880;SDS011;48969;49.934;8.596;2023-05-10T03:17:23;2.30;;;2.10;;
62880;SDS011;48969;49.934;8.596;2023-05-10T03:19:53;2.53;;;2.33;;
62880;SDS011;48969;49.934;8.596;2023-05-10T03:22:21;3.50;;;2.70;;
62880;SDS011;48969;49.934;8.596;2023-05-10T03:24:48;3.80;;;2.45;;
62880;SDS011;48969;49.934;8.596;2023-05-10T03:27:14;2.60;;;2.40;;
62880;SDS011;48969;49.934;8.596;2023-05-10T03:29:39;3.45;;;2.80;;
62880;SDS011;48969;49.934;8.596;2023-05-10T03:32:04;3.47;;;2.50;;
62880;SDS011;48969;49.934;8.596;2023-05-10T03:34:29;3.92;;;2.85;;
62880;SDS011;48969;49.934;8.596;2023-05-10T03:36:55;3.63;;;2.75;;
62880;SDS011;48969;49.934;8.596;2023-05-10T03:39:20;3.20;;;2.90;;
62880;SDS011;48969;49.934;8.596;2023-05-10T03:41:46;3.10;;;2.88;;
62880;SDS011;48969;49.934;8.596;2023-05-10T03:44:11;3.60;;;2.80;;
62880;SDS011;48969;49.934;8.596;2023-05-10T03:46:36;3.17;;;2.88;;
62880;SDS011;48969;49.934;8.596;2023-05-10T03:49:02;3.13;;;2.83;;
62880;SDS011;48969;49.934;8.596;2023-05-10T03:51:27;4.35;;;3.20;;
62880;SDS011;48969;49.934;8.596;2023-05-10T03:53:53;3.60;;;3.30;;
62880;SDS011;48969;49.934;8.596;2023-05-10T03:56:18;4.22;;;3.40;;
62880;SDS011;48969;49.934;8.596;2023-05-10T03:58:43;3.77;;;3.37;;
62880;SDS011;48969;49.934;8.596;2023-05-10T04:01:09;3.85;;;3.38;;
62880;SDS011;48969;49.934;8.596;2023-05-10T04:03:35;5.10;;;3.65;;
62880;SDS011;48969;49.934;8.596;2023-05-10T04:06:01;3.63;;;3.33;;
62880;SDS011;48969;49.934;8.596;2023-05-10T04:08:27;4.03;;;3.63;;
62880;SDS011;48969;49.934;8.596;2023-05-10T04:10:52;4.85;;;3.70;;
62880;SDS011;48969;49.934;8.596;2023-05-10T04:13:17;4.80;;;3.60;;
62880;SDS011;48969;49.934;8.596;2023-05-10T04:15:43;3.83;;;3.50;;
62880;SDS011;48969;49.934;8.596;2023-05-10T04:18:09;5.80;;;4.35;;
62880;SDS011;48969;49.934;8.596;2023-05-10T04:20:35;4.95;;;4.40;;
62880;SDS011;48969;49.934;8.596;2023-05-10T04:23:00;4.50;;;4.10;;
62880;SDS011;48969;49.934;8.596;2023-05-10T04:25:25;6.47;;;4.32;;
62880;SDS011;48969;49.934;8.596;2023-05-10T04:27:51;5.22;;;4.72;;
62880;SDS011;48969;49.934;8.596;2023-05-10T04:30:16;5.90;;;4.72;;
62880;SDS011;48969;49.934;8.596;2023-05-10T04:32:41;5.10;;;4.50;;
62880;SDS011;48969;49.934;8.596;2023-05-10T04:35:07;6.18;;;5.22;;
62880;SDS011;48969;49.934;8.596;2023-05-10T04:37:32;7.22;;;4.47;;
62880;SDS011;48969;49.934;8.596;2023-05-10T04:39:57;6.93;;;4.75;;
62880;SDS011;48969;49.934;8.596;2023-05-10T04:42:24;6.20;;;5.47;;
62880;SDS011;48969;49.934;8.596;2023-05-10T04:44:50;5.72;;;5.07;;
62880;SDS011;48969;49.934;8.596;2023-05-10T04:47:16;4.75;;;4.32;;
62880;SDS011;48969;49.934;8.596;2023-05-10T04:49:42;5.72;;;4.72;;
62880;SDS011;48969;49.934;8.596;2023-05-10T04:52:08;6.22;;;5.07;;
62880;SDS011;48969;49.934;8.596;2023-05-10T04:54:33;5.90;;;5.20;;
62880;SDS011;48969;49.934;8.596;2023-05-10T04:56:59;7.70;;;5.03;;
62880;SDS011;48969;49.934;8.596;2023-05-10T04:59:24;6.90;;;4.93;;
62880;SDS011;48969;49.934;8.596;2023-05-10T05:01:49;6.05;;;5.35;;
62880;SDS011;48969;49.934;8.596;2023-05-10T05:04:15;5.13;;;4.63;;
62880;SDS011;48969;49.934;8.596;2023-05-10T05:06:40;5.65;;;4.90;;
62880;SDS011;48969;49.934;8.596;2023-05-10T05:09:05;6.45;;;4.90;;
62880;SDS011;48969;49.934;8.596;2023-05-10T05:11:31;5.93;;;5.32;;
62880;SDS011;48969;49.934;8.596;2023-05-10T05:13:56;6.82;;;5.25;;
62880;SDS011;48969;49.934;8.596;2023-05-10T05:16:23;7.05;;;6.00;;
62880;SDS011;48969;49.934;8.596;2023-05-10T05:18:49;6.13;;;4.93;;
62880;SDS011;48969;49.934;8.596;2023-05-10T05:21:14;6.68;;;5.47;;
62880;SDS011;48969;49.934;8.596;2023-05-10T05:23:40;5.80;;;5.20;;
62880;SDS011;48969;49.934;8.596;2023-05-10T05:26:05;6.80;;;6.10;;
62880;SDS011;48969;49.934;8.596;2023-05-10T05:28:30;8.40;;;6.20;;
62880;SDS011;48969;49.934;8.596;2023-05-10T05:30:57;7.22;;;5.93;;
62880;SDS011;48969;49.934;8.596;2023-05-10T05:33:23;6.70;;;5.77;;
62880;SDS011;48969;49.934;8.596;2023-05-10T05:35:48;7.72;;;5.60;;
62880;SDS011;48969;49.934;8.596;2023-05-10T05:38:15;8.65;;;6.25;;
62880;SDS011;48969;49.934;8.596;2023-05-10T05:40:41;8.13;;;6.22;;
62880;SDS011;48969;49.934;8.596;2023-05-10T05:43:06;7.55;;;5.63;;
62880;SDS011;48969;49.934;8.596;2023-05-10T05:45:31;6.47;;;5.45;;
62880;SDS011;48969;49.934;8.596;2023-05-10T05:47:56;7.28;;;5.75;;
62880;SDS011;48969;49.934;8.596;2023-05-10T05:50:21;8.48;;;5.00;;
62880;SDS011;48969;49.934;8.596;2023-05-10T05:52:47;10.73;;;6.45;;
62880;SDS011;48969;49.934;8.596;2023-05-10T05:55:12;7.80;;;4.65;;
62880;SDS011;48969;49.934;8.596;2023-05-10T05:57:37;8.60;;;5.07;;
62880;SDS011;48969;49.934;8.596;2023-05-10T06:00:03;7.10;;;5.60;;
62880;SDS011;48969;49.934;8.596;2023-05-10T06:02:29;6.50;;;5.63;;
62880;SDS011;48969;49.934;8.596;2023-05-10T06:04:54;7.85;;;5.47;;
62880;SDS011;48969;49.934;8.596;2023-05-10T06:07:19;6.17;;;5.17;;
62880;SDS011;48969;49.934;8.596;2023-05-10T06:09:45;10.10;;;7.35;;
62880;SDS011;48969;49.934;8.596;2023-05-10T06:12:10;7.80;;;6.55;;
62880;SDS011;48969;49.934;8.596;2023-05-10T06:14:36;8.00;;;5.80;;
62880;SDS011;48969;49.934;8.596;2023-05-10T06:17:01;6.90;;;5.30;;
62880;SDS011;48969;49.934;8.596;2023-05-10T06:19:29;7.13;;;5.22;;
62880;SDS011;48969;49.934;8.596;2023-05-10T06:21:54;6.82;;;5.07;;
62880;SDS011;48969;49.934;8.596;2023-05-10T06:24:19;10.50;;;6.70;;
62880;SDS011;48969;49.934;8.596;2023-05-10T06:26:45;10.68;;;6.85;;
62880;SDS011;48969;49.934;8.596;2023-05-10T06:29:10;8.32;;;6.63;;
62880;SDS011;48969;49.934;8.596;2023-05-10T06:31:35;10.10;;;6.72;;
62880;SDS011;48969;49.934;8.596;2023-05-10T06:34:00;10.03;;;5.37;;
62880;SDS011;48969;49.934;8.596;2023-05-10T06:36:25;8.88;;;5.70;;
62880;SDS011;48969;49.934;8.596;2023-05-10T06:38:52;6.95;;;5.28;;
62880;SDS011;48969;49.934;8.596;2023-05-10T06:41:17;8.88;;;6.10;;
62880;SDS011;48969;49.934;8.596;2023-05-10T06:43:42;6.70;;;5.20;;
62880;SDS011;48969;49.934;8.596;2023-05-10T06:46:08;6.97;;;5.57;;
62880;SDS011;48969;49.934;8.596;2023-05-10T06:48:33;6.57;;;5.13;;
62880;SDS011;48969;49.934;8.596;2023-05-10T06:50:59;7.95;;;6.30;;
62880;SDS011;48969;49.934;8.596;2023-05-10T06:53:24;10.57;;;7.60;;
62880;SDS011;48969;49.934;8.596;2023-05-10T06:55:49;6.65;;;5.95;;
62880;SDS011;48969;49.934;8.596;2023-05-10T06:58:14;9.18;;;6.78;;
62880;SDS011;48969;49.934;8.596;2023-05-10T07:00:40;7.75;;;6.95;;
62880;SDS011;48969;49.934;8.596;2023-05-10T07:03:07;10.55;;;8.57;;
62880;SDS011;48969;49.934;8.596;2023-05-10T07:05:32;9.30;;;8.40;;
62880;SDS011;48969;49.934;8.596;2023-05-10T07:07:58;10.88;;;9.77;;
62880;SDS011;48969;49.934;8.596;2023-05-10T07:10:23;9.85;;;8.85;;
62880;SDS011;48969;49.934;8.596;2023-05-10T07:12:48;12.02;;;9.57;;
62880;SDS011;48969;49.934;8.596;2023-05-10T07:15:14;9.53;;;8.63;;
62880;SDS011;48969;49.934;8.596;2023-05-10T07:17:39;9.27;;;8.32;;
62880;SDS011;48969;49.934;8.596;2023-05-10T07:20:04;11.73;;;8.68;;
62880;SDS011;48969;49.934;8.596;2023-05-10T07:22:30;10.82;;;9.07;;
62880;SDS011;48969;49.934;8.596;2023-05-10T07:24:55;13.13;;;11.82;;
62880;SDS011;48969;49.934;8.596;2023-05-10T07:27:20;12.23;;;11.02;;
62880;SDS011;48969;49.934;8.596;2023-05-10T07:29:45;13.00;;;10.53;;
62880;SDS011;48969;49.934;8.596;2023-05-10T07:32:10;12.13;;;10.93;;
62880;SDS011;48969;49.934;8.596;2023-05-10T07:34:36;9.90;;;8.67;;
62880;SDS011;48969;49.934;8.596;2023-05-10T07:37:01;8.00;;;7.20;;
62880;SDS011;48969;49.934;8.596;2023-05-10T07:39:26;10.17;;;9.17;;
62880;SDS011;48969;49.934;8.596;2023-05-10T07:41:51;9.02;;;8.05;;
62880;SDS011;48969;49.934;8.596;2023-05-10T07:44:17;10.33;;;8.23;;
62880;SDS011;48969;49.934;8.596;2023-05-10T07:46:44;8.57;;;7.82;;
62880;SDS011;48969;49.934;8.596;2023-05-10T07:49:09;8.80;;;7.90;;
62880;SDS011;48969;49.934;8.596;2023-05-10T07:51:34;8.25;;;7.45;;
62880;SDS011;48969;49.934;8.596;2023-05-10T07:54:00;11.93;;;8.57;;
62880;SDS011;48969;49.934;8.596;2023-05-10T07:56:26;11.20;;;9.40;;
62880;SDS011;48969;49.934;8.596;2023-05-10T07:58:52;10.57;;;8.52;;
62880;SDS011;48969;49.934;8.596;2023-05-10T08:01:18;10.75;;;7.60;;
62880;SDS011;48969;49.934;8.596;2023-05-10T08:03:43;8.70;;;7.10;;
62880;SDS011;48969;49.934;8.596;2023-05-10T08:06:08;8.82;;;7.25;;
62880;SDS011;48969;49.934;8.596;2023-05-10T08:08:33;9.30;;;8.40;;
62880;SDS011;48969;49.934;8.596;2023-05-10T08:10:58;9.60;;;7.85;;
62880;SDS011;48969;49.934;8.596;2023-05-10T08:13:23;9.97;;;8.33;;
62880;SDS011;48969;49.934;8.596;2023-05-10T08:15:49;9.52;;;7.35;;
62880;SDS011;48969;49.934;8.596;2023-05-10T08:18:14;9.82;;;7.25;;
62880;SDS011;48969;49.934;8.596;2023-05-10T08:20:39;8.90;;;6.75;;
62880;SDS011;48969;49.934;8.596;2023-05-10T08:23:04;9.32;;;7.30;;
62880;SDS011;48969;49.934;8.596;2023-05-10T08:25:30;10.23;;;7.83;;
62880;SDS011;48969;49.934;8.596;2023-05-10T08:27:56;7.43;;;6.38;;
62880;SDS011;48969;49.934;8.596;2023-05-10T08:30:21;8.23;;;6.30;;
62880;SDS011;48969;49.934;8.596;2023-05-10T08:32:46;8.87;;;7.40;;
62880;SDS011;48969;49.934;8.596;2023-05-10T08:35:11;7.45;;;6.20;;
62880;SDS011;48969;49.934;8.596;2023-05-10T08:37:36;7.53;;;6.70;;
62880;SDS011;48969;49.934;8.596;2023-05-10T08:40:02;7.05;;;5.25;;
62880;SDS011;48969;49.934;8.596;2023-05-10T08:42:28;6.10;;;4.78;;
62880;SDS011;48969;49.934;8.596;2023-05-10T08:44:55;7.07;;;6.00;;
62880;SDS011;48969;49.934;8.596;2023-05-10T08:47:21;5.95;;;5.35;;
62880;SDS011;48969;49.934;8.596;2023-05-10T08:49:47;6.40;;;5.80;;
62880;SDS011;48969;49.934;8.596;2023-05-10T08:52:13;14.95;;;10.82;;
62880;SDS011;48969;49.934;8.596;2023-05-10T08:54:39;6.43;;;5.32;;
62880;SDS011;48969;49.934;8.596;2023-05-10T08:57:05;6.05;;;5.18;;
62880;SDS011;48969;49.934;8.596;2023-05-10T08:59:31;5.78;;;5.22;;
62880;SDS011;48969;49.934;8.596;2023-05-10T09:01:57;5.13;;;4.63;;
62880;SDS011;48969;49.934;8.596;2023-05-10T09:04:22;5.93;;;4.63;;
62880;SDS011;48969;49.934;8.596;2023-05-10T09:06:47;6.10;;;4.70;;
62880;SDS011;48969;49.934;8.596;2023-05-10T09:09:13;6.68;;;4.30;;
62880;SDS011;48969;49.934;8.596;2023-05-10T09:11:38;5.15;;;3.25;;
62880;SDS011;48969;49.934;8.596;2023-05-10T09:14:04;8.30;;;4.55;;
62880;SDS011;48969;49.934;8.596;2023-05-10T09:16:29;6.40;;;3.80;;
62880;SDS011;48969;49.934;8.596;2023-05-10T09:18:54;3.90;;;3.50;;
62880;SDS011;48969;49.934;8.596;2023-05-10T09:21:19;6.28;;;2.80;;
62880;SDS011;48969;49.934;8.596;2023-05-10T09:23:45;6.28;;;4.13;;
62880;SDS011;48969;49.934;8.596;2023-05-10T09:26:11;5.63;;;3.88;;
62880;SDS011;48969;49.934;8.596;2023-05-10T09:28:56;4.60;;;3.30;;
62880;SDS011;48969;49.934;8.596;2023-05-10T09:31:21;5.72;;;3.35;;
62880;SDS011;48969;49.934;8.596;2023-05-10T09:33:47;5.63;;;3.90;;
62880;SDS011;48969;49.934;8.596;2023-05-10T09:36:13;3.08;;;2.67;;
62880;SDS011;48969;49.934;8.596;2023-05-10T09:38:48;3.78;;;3.10;;
62880;SDS011;48969;49.934;8.596;2023-05-10T09:41:21;4.78;;;4.10;;
62880;SDS011;48969;49.934;8.596;2023-05-10T09:43:46;4.35;;;3.95;;
62880;SDS011;48969;49.934;8.596;2023-05-10T09:46:12;5.57;;;5.00;;
62880;SDS011;48969;49.934;8.596;2023-05-10T09:48:44;3.95;;;2.53;;
62880;SDS011;48969;49.934;8.596;2023-05-10T09:51:09;3.63;;;2.45;;
62880;SDS011;48969;49.934;8.596;2023-05-10T09:53:35;2.70;;;2.50;;
62880;SDS011;48969;49.934;8.596;2023-05-10T09:56:00;2.63;;;1.92;;
62880;SDS011;48969;49.934;8.596;2023-05-10T09:58:25;1.85;;;1.75;;
62880;SDS011;48969;49.934;8.596;2023-05-10T10:00:51;2.47;;;1.98;;
62880;SDS011;48969;49.934;8.596;2023-05-10T10:03:18;2.90;;;2.45;;
62880;SDS011;48969;49.934;8.596;2023-05-10T10:05:44;3.30;;;2.60;;
62880;SDS011;48969;49.934;8.596;2023-05-10T10:08:09;3.83;;;2.70;;
62880;SDS011;48969;49.934;8.596;2023-05-10T10:10:35;2.28;;;2.08;;
62880;SDS011;48969;49.934;8.596;2023-05-10T10:13:01;3.08;;;2.75;;
62880;SDS011;48969;49.934;8.596;2023-05-10T10:15:26;3.58;;;2.70;;
62880;SDS011;48969;49.934;8.596;2023-05-10T10:17:52;2.80;;;2.60;;
62880;SDS011;48969;49.934;8.596;2023-05-10T10:20:18;4.85;;;2.83;;
62880;SDS011;48969;49.934;8.596;2023-05-10T10:22:43;4.45;;;3.40;;
62880;SDS011;48969;49.934;8.596;2023-05-10T10:25:09;4.75;;;3.00;;
62880;SDS011;48969;49.934;8.596;2023-05-10T10:32:42;4.10;;;3.47;;
62880;SDS011;48969;49.934;8.596;2023-05-10T10:35:12;3.83;;;2.60;;
62880;SDS011;48969;49.934;8.596;2023-05-10T10:37:44;2.75;;;2.50;;
62880;SDS011;48969;49.934;8.596;2023-05-10T10:40:31;3.20;;;2.20;;
62880;SDS011;48969;49.934;8.596;2023-05-10T10:42:57;4.72;;;2.08;;
62880;SDS011;48969;49.934;8.596;2023-05-10T10:45:24;3.33;;;2.78;;
62880;SDS011;48969;49.934;8.596;2023-05-10T10:47:53;3.38;;;2.60;;
62880;SDS011;48969;49.934;8.596;2023-05-10T10:50:18;4.13;;;3.20;;
62880;SDS011;48969;49.934;8.596;2023-05-10T10:52:43;4.33;;;3.20;;
62880;SDS011;48969;49.934;8.596;2023-05-10T11:02:44;2.72;;;2.10;;
62880;SDS011;48969;49.934;8.596;2023-05-10T11:07:58;5.20;;;2.00;;
62880;SDS011;48969;49.934;8.596;2023-05-10T11:10:23;2.10;;;1.90;;
62880;SDS011;48969;49.934;8.596;2023-05-10T11:12:52;2.88;;;2.38;;
62880;SDS011;48969;49.934;8.596;2023-05-10T11:15:19;2.00;;;1.90;;
62880;SDS011;48969;49.934;8.596;2023-05-10T11:17:44;3.03;;;2.30;;
62880;SDS011;48969;49.934;8.596;2023-05-10T11:20:13;2.20;;;2.00;;
62880;SDS011;48969;49.934;8.596;2023-05-10T11:23:10;3.25;;;2.30;;
62880;SDS011;48969;49.934;8.596;2023-05-10T11:25:27;3.08;;;2.50;;
62880;SDS011;48969;49.934;8.596;2023-05-10T11:27:53;2.53;;;2.33;;
62880;SDS011;48969;49.934;8.596;2023-05-10T11:30:18;3.42;;;2.20;;
62880;SDS011;48969;49.934;8.596;2023-05-10T11:32:43;3.47;;;2.67;;
62880;SDS011;48969;49.934;8.596;2023-05-10T11:35:09;3.08;;;2.47;;
62880;SDS011;48969;49.934;8.596;2023-05-10T11:37:35;2.78;;;2.28;;
62880;SDS011;48969;49.934;8.596;2023-05-10T11:40:00;3.03;;;2.40;;
62880;SDS011;48969;49.934;8.596;2023-05-10T11:42:27;2.13;;;2.00;;
62880;SDS011;48969;49.934;8.596;2023-05-10T11:44:52;3.05;;;2.17;;
62880;SDS011;48969;49.934;8.596;2023-05-10T11:47:17;2.47;;;1.37;;
62880;SDS011;48969;49.934;8.596;2023-05-10T11:49:46;3.15;;;1.85;;
62880;SDS011;48969;49.934;8.596;2023-05-10T11:52:11;2.47;;;1.50;;
62880;SDS011;48969;49.934;8.596;2023-05-10T11:54:36;1.90;;;1.70;;
62880;SDS011;48969;49.934;8.596;2023-05-10T11:57:02;1.70;;;1.60;;
62880;SDS011;48969;49.934;8.596;2023-05-10T11:59:27;1.95;;;1.60;;
62880;SDS011;48969;49.934;8.596;2023-05-10T12:01:52;2.05;;;1.70;;
62880;SDS011;48969;49.934;8.596;2023-05-10T12:04:18;1.60;;;1.40;;
62880;SDS011;48969;49.934;8.596;2023-05-10T12:06:43;1.73;;;1.50;;
62880;SDS011;48969;49.934;8.596;2023-05-10T12:09:09;2.47;;;1.52;;
62880;SDS011;48969;49.934;8.596;2023-05-10T12:11:36;2.67;;;1.52;;
62880;SDS011;48969;49.934;8.596;2023-05-10T12:14:03;2.45;;;1.50;;
62880;SDS011;48969;49.934;8.596;2023-05-10T12:16:29;2.78;;;1.33;;
62880;SDS011;48969;49.934;8.596;2023-05-10T12:18:59;2.78;;;1.40;;
62880;SDS011;48969;49.934;8.596;2023-05-10T12:21:24;2.13;;;1.40;;
62880;SDS011;48969;49.934;8.596;2023-05-10T12:23:51;2.63;;;1.33;;
62880;SDS011;48969;49.934;8.596;2023-05-10T12:26:16;1.58;;;1.48;;
62880;SDS011;48969;49.934;8.596;2023-05-10T12:28:44;2.65;;;1.63;;
62880;SDS011;48969;49.934;8.596;2023-05-10T12:31:10;1.58;;;1.25;;
62880;SDS011;48969;49.934;8.596;2023-05-10T12:33:39;1.75;;;1.55;;
62880;SDS011;48969;49.934;8.596;2023-05-10T12:36:07;1.20;;;1.10;;
62880;SDS011;48969;49.934;8.596;2023-05-10T12:38:33;1.75;;;1.30;;
62880;SDS011;48969;49.934;8.596;2023-05-10T12:40:59;2.83;;;1.50;;
62880;SDS011;48969;49.934;8.596;2023-05-10T12:43:25;1.88;;;1.77;;
62880;SDS011;48969;49.934;8.596;2023-05-10T12:45:50;1.40;;;1.30;;
62880;SDS011;48969;49.934;8.596;2023-05-10T12:48:15;1.85;;;1.23;;
62880;SDS011;48969;49.934;8.596;2023-05-10T12:50:40;2.13;;;1.27;;
62880;SDS011;48969;49.934;8.596;2023-05-10T12:53:06;2.20;;;1.50;;
62880;SDS011;48969;49.934;8.596;2023-05-10T12:55:31;2.53;;;1.38;;
62880;SDS011;48969;49.934;8.596;2023-05-10T12:57:56;1.83;;;1.30;;
62880;SDS011;48969;49.934;8.596;2023-05-10T13:00:21;3.75;;;1.30;;
62880;SDS011;48969;49.934;8.596;2023-05-10T13:02:47;1.50;;;1.40;;
62880;SDS011;48969;49.934;8.596;2023-05-10T13:05:12;2.78;;;1.52;;
62880;SDS011;48969;49.934;8.596;2023-05-10T13:07:38;2.83;;;1.58;;
62880;SDS011;48969;49.934;8.596;2023-05-10T13:10:03;2.00;;;1.70;;
62880;SDS011;48969;49.934;8.596;2023-05-10T13:12:28;2.03;;;1.40;;
62880;SDS011;48969;49.934;8.596;2023-05-10T13:14:54;1.83;;;1.60;;
62880;SDS011;48969;49.934;8.596;2023-05-10T13:17:19;1.52;;;1.20;;
62880;SDS011;48969;49.934;8.596;2023-05-10T13:19:44;2.72;;;1.30;;
62880;SDS011;48969;49.934;8.596;2023-05-10T13:22:10;2.57;;;1.57;;
62880;SDS011;48969;49.934;8.596;2023-05-10T13:24:35;2.40;;;1.48;;
62880;SDS011;48969;49.934;8.596;2023-05-10T13:27:00;2.03;;;1.50;;
62880;SDS011;48969;49.934;8.596;2023-05-10T13:29:25;1.77;;;1.60;;
62880;SDS011;48969;49.934;8.596;2023-05-10T13:31:50;1.95;;;1.63;;
62880;SDS011;48969;49.934;8.596;2023-05-10T13:34:16;2.58;;;1.60;;
62880;SDS011;48969;49.934;8.596;2023-05-10T13:36:41;1.98;;;1.38;;
62880;SDS011;48969;49.934;8.596;2023-05-10T13:39:07;2.08;;;1.50;;
62880;SDS011;48969;49.934;8.596;2023-05-10T13:41:32;1.88;;;1.30;;
62880;SDS011;48969;49.934;8.596;2023-05-10T13:43:57;2.13;;;1.40;;
62880;SDS011;48969;49.934;8.596;2023-05-10T13:46:22;2.58;;;1.40;;
62880;SDS011;48969;49.934;8.596;2023-05-10T13:48:48;2.60;;;1.63;;
62880;SDS011;48969;49.934;8.596;2023-05-10T13:51:13;5.32;;;1.90;;
62880;SDS011;48969;49.934;8.596;2023-05-10T13:53:38;6.70;;;2.92;;
62880;SDS011;48969;49.934;8.596;2023-05-10T13:56:03;2.83;;;1.30;;
62880;SDS011;48969;49.934;8.596;2023-05-10T13:58:29;5.78;;;1.48;;
62880;SDS011;48969;49.934;8.596;2023-05-10T14:00:55;2.00;;;1.73;;
62880;SDS011;48969;49.934;8.596;2023-05-10T14:03:20;4.93;;;1.80;;
62880;SDS011;48969;49.934;8.596;2023-05-10T14:05:45;1.90;;;1.60;;
62880;SDS011;48969;49.934;8.596;2023-05-10T14:08:12;4.35;;;1.70;;
62880;SDS011;48969;49.934;8.596;2023-05-10T14:10:38;3.35;;;1.73;;
62880;SDS011;48969;49.934;8.596;2023-05-10T14:13:03;3.00;;;1.60;;
62880;SDS011;48969;49.934;8.596;2023-05-10T14:15:28;4.95;;;1.70;;
62880;SDS011;48969;49.934;8.596;2023-05-10T14:17:53;2.97;;;1.60;;
62880;SDS011;48969;49.934;8.596;2023-05-10T14:20:19;3.30;;;1.47;;
62880;SDS011;48969;49.934;8.596;2023-05-10T14:22:44;2.03;;;1.23;;
62880;SDS011;48969;49.934;8.596;2023-05-10T14:25:12;1.85;;;1.33;;
62880;SDS011;48969;49.934;8.596;2023-05-10T14:27:38;2.85;;;1.80;;
62880;SDS011;48969;49.934;8.596;2023-05-10T14:30:03;3.17;;;1.67;;
62880;SDS011;48969;49.934;8.596;2023-05-10T14:32:28;5.38;;;2.17;;
62880;SDS011;48969;49.934;8.596;2023-05-10T14:34:54;3.17;;;2.10;;
62880;SDS011;48969;49.934;8.596;2023-05-10T14:37:19;3.13;;;2.05;;
62880;SDS011;48969;49.934;8.596;2023-05-10T14:39:44;2.03;;;1.40;;
62880;SDS011;48969;49.934;8.596;2023-05-10T14:42:09;1.83;;;1.40;;
62880;SDS011;48969;49.934;8.596;2023-05-10T14:44:34;4.03;;;1.70;;
62880;SDS011;48969;49.934;8.596;2023-05-10T14:47:00;4.87;;;1.90;;
62880;SDS011;48969;49.934;8.596;2023-05-10T14:49:25;4.45;;;1.67;;
62880;SDS011;48969;49.934;8.596;2023-05-10T14:51:51;4.13;;;1.63;;
62880;SDS011;48969;49.934;8.596;2023-05-10T14:54:16;2.90;;;1.90;;
62880;SDS011;48969;49.934;8.596;2023-05-10T14:56:42;4.18;;;1.70;;
62880;SDS011;48969;49.934;8.596;2023-05-10T14:59:07;3.57;;;1.70;;
62880;SDS011;48969;49.934;8.596;2023-05-10T15:01:32;2.63;;;1.50;;
62880;SDS011;48969;49.934;8.596;2023-05-10T15:03:59;4.93;;;2.10;;